createdAt,value
2018-07-09T00:00:16.549Z,0.00
2018-07-09T00:01:16.562Z,0.00
2018-07-09T00:02:16.524Z,0.00
2018-07-09T00:03:16.517Z,0.00
2018-07-09T00:04:16.503Z,0.00
2018-07-09T00:05:16.493Z,0.00
2018-07-09T00:06:16.533Z,0.00
2018-07-09T00:07:16.507Z,0.00
2018-07-09T00:08:16.460Z,0.00
2018-07-09T00:09:16.449Z,0.00
2018-07-09T00:10:16.438Z,0.00
2018-07-09T00:11:16.428Z,0.00
2018-07-09T00:12:16.414Z,0.00
2018-07-09T00:13:16.441Z,0.00
2018-07-09T00:14:16.393Z,0.00
2018-07-09T00:15:16.383Z,0.00
2018-07-09T00:16:16.376Z,0.00
2018-07-09T00:17:16.366Z,0.00
2018-07-09T00:18:16.353Z,0.00
2018-07-09T00:19:16.377Z,0.00
2018-07-09T00:20:16.329Z,0.00
2018-07-09T00:21:16.317Z,0.00
2018-07-09T00:22:16.306Z,0.00
2018-07-09T00:23:16.296Z,0.00
2018-07-09T00:24:16.284Z,0.00
2018-07-09T00:25:16.305Z,0.00
2018-07-09T00:26:16.263Z,0.00
2018-07-09T00:27:16.250Z,0.00
2018-07-09T00:28:16.250Z,0.00
2018-07-09T00:29:16.230Z,0.00
2018-07-09T00:30:16.218Z,0.00
2018-07-09T00:31:16.228Z,0.00
2018-07-09T00:32:16.249Z,0.00
2018-07-09T00:33:16.188Z,0.00
2018-07-09T00:34:16.176Z,0.00
2018-07-09T00:35:16.162Z,0.00
2018-07-09T00:36:16.153Z,0.00
2018-07-09T00:37:16.167Z,0.00
2018-07-09T00:38:16.129Z,0.00
2018-07-09T00:39:16.118Z,0.00
2018-07-09T00:40:16.112Z,0.00
2018-07-09T00:41:16.096Z,0.00
2018-07-09T00:42:16.085Z,0.00
2018-07-09T00:43:16.100Z,0.00
2018-07-09T00:44:16.065Z,0.00
2018-07-09T00:45:16.059Z,0.00
2018-07-09T00:46:16.044Z,0.00
2018-07-09T00:47:16.032Z,0.00
2018-07-09T00:48:16.024Z,0.00
2018-07-09T00:49:16.028Z,0.00
2018-07-09T00:50:15.999Z,0.00
2018-07-09T00:51:15.990Z,0.00
2018-07-09T00:52:15.977Z,0.00
2018-07-09T00:53:15.965Z,0.00
2018-07-09T00:54:15.954Z,0.00
2018-07-09T00:55:15.975Z,0.00
2018-07-09T00:56:15.936Z,0.00
2018-07-09T00:57:15.921Z,0.00
2018-07-09T00:58:15.910Z,0.00
2018-07-09T00:59:15.903Z,0.00
2018-07-09T01:00:15.890Z,0.00
2018-07-09T01:01:15.900Z,0.00
2018-07-09T01:02:15.866Z,0.00
2018-07-09T01:03:15.855Z,0.00
2018-07-09T01:04:15.843Z,0.00
2018-07-09T01:05:15.834Z,0.00
2018-07-09T01:06:15.825Z,0.00
2018-07-09T01:07:15.832Z,0.00
2018-07-09T01:08:15.801Z,0.00
2018-07-09T01:09:15.792Z,0.00
2018-07-09T01:10:15.787Z,0.00
2018-07-09T01:11:15.773Z,0.00
2018-07-09T01:12:15.756Z,0.00
2018-07-09T01:13:15.775Z,0.00
2018-07-09T01:14:15.738Z,0.00
2018-07-09T01:15:15.725Z,0.00
2018-07-09T01:16:15.713Z,0.00
2018-07-09T01:17:15.701Z,0.00
2018-07-09T01:18:15.692Z,0.00
2018-07-09T01:19:15.705Z,0.00
2018-07-09T01:20:15.704Z,0.00
2018-07-09T01:21:15.663Z,0.00
2018-07-09T01:22:15.650Z,0.00
2018-07-09T01:23:15.638Z,0.00
2018-07-09T01:24:15.626Z,0.00
2018-07-09T01:25:15.643Z,0.00
2018-07-09T01:26:15.605Z,0.00
2018-07-09T01:27:15.596Z,0.00
2018-07-09T01:28:15.583Z,0.00
2018-07-09T01:29:15.666Z,0.00
2018-07-09T01:30:15.563Z,0.00
2018-07-09T01:31:15.564Z,0.00
2018-07-09T01:32:15.539Z,0.00
2018-07-09T01:33:15.528Z,0.00
2018-07-09T01:34:15.518Z,0.00
2018-07-09T01:35:15.506Z,0.00
2018-07-09T01:36:15.522Z,0.00
2018-07-09T01:37:15.489Z,0.00
2018-07-09T01:38:15.475Z,0.00
2018-07-09T01:39:15.463Z,0.00
2018-07-09T01:40:15.453Z,0.00
2018-07-09T01:41:15.439Z,0.00
2018-07-09T01:42:15.454Z,0.00
2018-07-09T01:43:15.418Z,0.00
2018-07-09T01:44:15.407Z,0.00
2018-07-09T01:45:15.396Z,0.00
2018-07-09T01:46:15.386Z,0.00
2018-07-09T01:47:15.375Z,0.00
2018-07-09T01:48:15.408Z,0.00
2018-07-09T01:49:15.351Z,0.00
2018-07-09T01:50:15.342Z,0.00
2018-07-09T01:51:15.330Z,0.00
2018-07-09T01:52:15.318Z,0.00
2018-07-09T01:53:15.310Z,0.00
2018-07-09T01:54:15.323Z,0.00
2018-07-09T01:55:15.284Z,0.00
2018-07-09T01:56:15.272Z,0.00
2018-07-09T01:57:15.263Z,0.00
2018-07-09T01:58:15.251Z,0.00
2018-07-09T01:59:15.252Z,0.00
2018-07-09T02:00:15.250Z,0.00
2018-07-09T02:01:15.220Z,0.00
2018-07-09T02:02:15.209Z,0.00
2018-07-09T02:03:15.197Z,0.00
2018-07-09T02:04:15.185Z,0.00
2018-07-09T02:05:15.176Z,0.00
2018-07-09T02:06:15.217Z,0.00
2018-07-09T02:07:15.150Z,0.00
2018-07-09T02:08:15.141Z,0.00
2018-07-09T02:09:15.130Z,0.00
2018-07-09T02:10:15.130Z,0.00
2018-07-09T02:11:15.106Z,0.00
2018-07-09T02:12:15.113Z,0.00
2018-07-09T02:13:15.085Z,0.00
2018-07-09T02:14:15.076Z,0.00
2018-07-09T02:15:15.060Z,0.00
2018-07-09T02:16:15.052Z,0.00
2018-07-09T02:17:15.042Z,0.00
2018-07-09T02:18:15.042Z,0.00
2018-07-09T02:19:15.023Z,0.00
2018-07-09T02:20:15.007Z,0.00
2018-07-09T02:21:15.039Z,0.00
2018-07-09T02:22:14.981Z,0.00
2018-07-09T02:23:14.996Z,0.00
2018-07-09T02:24:14.958Z,0.00
2018-07-09T02:25:14.964Z,0.00
2018-07-09T02:26:14.937Z,0.00
2018-07-09T02:27:14.926Z,0.00
2018-07-09T02:28:14.915Z,0.00
2018-07-09T02:29:14.933Z,0.00
2018-07-09T02:30:14.891Z,0.00
2018-07-09T02:31:14.878Z,0.00
2018-07-09T02:32:14.873Z,0.00
2018-07-09T02:33:14.871Z,0.00
2018-07-09T02:34:14.845Z,0.00
2018-07-09T02:35:14.857Z,0.00
2018-07-09T02:36:14.825Z,0.00
2018-07-09T02:37:14.811Z,0.00
2018-07-09T02:38:14.799Z,0.00
2018-07-09T02:39:14.790Z,0.00
2018-07-09T02:40:14.781Z,0.00
2018-07-09T02:41:14.791Z,0.00
2018-07-09T02:42:14.758Z,0.00
2018-07-09T02:43:14.741Z,0.00
2018-07-09T02:44:14.731Z,0.00
2018-07-09T02:45:14.722Z,0.00
2018-07-09T02:46:14.708Z,0.00
2018-07-09T02:47:14.721Z,0.00
2018-07-09T02:48:14.688Z,0.00
2018-07-09T02:49:14.745Z,0.00
2018-07-09T02:50:14.678Z,0.00
2018-07-09T02:51:14.656Z,0.00
2018-07-09T02:52:14.644Z,0.00
2018-07-09T02:53:14.647Z,0.00
2018-07-09T02:54:14.618Z,0.00
2018-07-09T02:55:14.611Z,0.00
2018-07-09T02:56:14.601Z,0.00
2018-07-09T02:57:14.586Z,0.00
2018-07-09T02:58:14.584Z,0.00
2018-07-09T02:59:14.592Z,0.00
2018-07-09T03:00:14.554Z,0.00
2018-07-09T03:01:14.658Z,0.00
2018-07-09T03:02:14.532Z,0.00
2018-07-09T03:03:14.518Z,0.00
2018-07-09T03:04:14.509Z,0.00
2018-07-09T03:05:14.521Z,0.00
2018-07-09T03:06:14.514Z,0.00
2018-07-09T03:07:14.483Z,0.00
2018-07-09T03:08:14.464Z,0.00
2018-07-09T03:09:14.453Z,0.00
2018-07-09T03:10:14.447Z,0.00
2018-07-09T03:11:14.451Z,0.00
2018-07-09T03:12:14.423Z,0.00
2018-07-09T03:13:14.408Z,0.00
2018-07-09T03:14:14.397Z,0.00
2018-07-09T03:15:14.386Z,0.00
2018-07-09T03:16:14.377Z,0.00
2018-07-09T03:17:14.409Z,0.00
2018-07-09T03:18:14.356Z,0.00
2018-07-09T03:19:14.411Z,0.00
2018-07-09T03:20:14.332Z,0.00
2018-07-09T03:21:14.320Z,0.00
2018-07-09T03:22:14.311Z,0.00
2018-07-09T03:23:14.323Z,5.62
2018-07-09T03:24:14.289Z,5.62
2018-07-09T03:25:14.280Z,5.62
2018-07-09T03:26:14.268Z,5.62
2018-07-09T03:27:14.259Z,5.62
2018-07-09T03:28:14.254Z,5.62
2018-07-09T03:29:14.255Z,5.62
2018-07-09T03:30:14.230Z,5.62
2018-07-09T03:31:14.213Z,5.62
2018-07-09T03:32:14.202Z,5.62
2018-07-09T03:33:14.194Z,11.25
2018-07-09T03:34:14.181Z,11.25
2018-07-09T03:35:14.198Z,11.25
2018-07-09T03:36:14.160Z,11.25
2018-07-09T03:37:14.147Z,11.25
2018-07-09T03:38:14.138Z,11.25
2018-07-09T03:39:14.139Z,11.25
2018-07-09T03:40:14.116Z,11.25
2018-07-09T03:41:14.124Z,16.88
2018-07-09T03:42:14.094Z,16.88
2018-07-09T03:43:14.083Z,16.88
2018-07-09T03:44:14.071Z,16.88
2018-07-09T03:45:14.064Z,16.88
2018-07-09T03:46:14.050Z,16.88
2018-07-09T03:47:14.059Z,22.50
2018-07-09T03:48:14.029Z,22.50
2018-07-09T03:49:14.017Z,22.50
2018-07-09T03:50:14.005Z,28.12
2018-07-09T03:51:13.994Z,33.75
2018-07-09T03:52:13.992Z,39.38
2018-07-09T03:53:14.003Z,45.00
2018-07-09T03:54:13.959Z,45.00
2018-07-09T03:55:13.948Z,45.00
2018-07-09T03:56:13.938Z,56.25
2018-07-09T03:57:13.927Z,67.50
2018-07-09T03:58:13.918Z,73.12
2018-07-09T03:59:13.929Z,78.75
2018-07-09T04:00:13.895Z,78.75
2018-07-09T04:01:13.882Z,84.38
2018-07-09T04:02:13.900Z,90.00
2018-07-09T04:03:13.863Z,90.00
2018-07-09T04:04:13.850Z,90.00
2018-07-09T04:05:13.916Z,95.62
2018-07-09T04:06:13.829Z,101.25
2018-07-09T04:07:13.815Z,106.88
2018-07-09T04:08:13.805Z,112.50
2018-07-09T04:09:13.795Z,118.12
2018-07-09T04:10:13.783Z,118.12
2018-07-09T04:11:13.802Z,123.75
2018-07-09T04:12:13.761Z,129.38
2018-07-09T04:13:13.750Z,135.00
2018-07-09T04:14:13.742Z,146.25
2018-07-09T04:15:13.729Z,163.12
2018-07-09T04:16:13.718Z,180.00
2018-07-09T04:17:13.727Z,196.88
2018-07-09T04:18:13.695Z,208.12
2018-07-09T04:19:13.684Z,225.00
2018-07-09T04:20:13.673Z,241.88
2018-07-09T04:21:13.666Z,241.88
2018-07-09T04:22:13.653Z,247.50
2018-07-09T04:23:13.659Z,253.12
2018-07-09T04:24:13.628Z,270.00
2018-07-09T04:25:13.618Z,292.50
2018-07-09T04:26:13.627Z,315.00
2018-07-09T04:27:13.595Z,360.00
2018-07-09T04:28:13.583Z,405.00
2018-07-09T04:29:13.598Z,444.38
2018-07-09T04:30:13.561Z,483.75
2018-07-09T04:31:13.552Z,517.50
2018-07-09T04:32:13.540Z,528.75
2018-07-09T04:33:13.534Z,523.12
2018-07-09T04:34:13.628Z,523.12
2018-07-09T04:35:13.537Z,523.12
2018-07-09T04:36:13.496Z,528.75
2018-07-09T04:37:13.485Z,523.12
2018-07-09T04:38:13.492Z,517.50
2018-07-09T04:39:13.466Z,523.12
2018-07-09T04:40:13.458Z,517.50
2018-07-09T04:41:13.461Z,511.88
2018-07-09T04:42:13.431Z,500.62
2018-07-09T04:43:13.461Z,495.00
2018-07-09T04:44:13.410Z,483.75
2018-07-09T04:45:13.398Z,478.12
2018-07-09T04:46:13.384Z,461.25
2018-07-09T04:47:13.404Z,455.62
2018-07-09T04:48:13.363Z,455.62
2018-07-09T04:49:13.358Z,455.62
2018-07-09T04:50:13.348Z,450.00
2018-07-09T04:51:13.338Z,444.38
2018-07-09T04:52:13.321Z,444.38
2018-07-09T04:53:13.328Z,444.38
2018-07-09T04:54:13.301Z,444.38
2018-07-09T04:55:13.291Z,444.38
2018-07-09T04:56:13.277Z,450.00
2018-07-09T04:57:13.264Z,461.25
2018-07-09T04:58:13.253Z,450.00
2018-07-09T04:59:13.264Z,455.62
2018-07-09T05:00:13.232Z,455.62
2018-07-09T05:01:13.226Z,466.88
2018-07-09T05:02:13.212Z,500.62
2018-07-09T05:03:13.199Z,511.88
2018-07-09T05:04:13.195Z,489.38
2018-07-09T05:05:13.205Z,489.38
2018-07-09T05:06:13.166Z,511.88
2018-07-09T05:07:13.157Z,517.50
2018-07-09T05:08:13.149Z,528.75
2018-07-09T05:09:13.137Z,523.12
2018-07-09T05:10:13.126Z,517.50
2018-07-09T05:11:13.134Z,517.50
2018-07-09T05:12:13.104Z,551.25
2018-07-09T05:13:13.091Z,573.75
2018-07-09T05:14:13.082Z,579.38
2018-07-09T05:15:13.069Z,540.00
2018-07-09T05:16:13.065Z,500.62
2018-07-09T05:17:13.072Z,523.12
2018-07-09T05:18:13.037Z,596.25
2018-07-09T05:19:13.032Z,663.75
2018-07-09T05:20:13.018Z,691.88
2018-07-09T05:21:13.009Z,686.25
2018-07-09T05:22:12.999Z,663.75
2018-07-09T05:23:13.010Z,641.25
2018-07-09T05:24:12.972Z,618.75
2018-07-09T05:25:12.967Z,601.88
2018-07-09T05:26:12.953Z,596.25
2018-07-09T05:27:12.942Z,613.12
2018-07-09T05:28:12.928Z,669.38
2018-07-09T05:29:12.965Z,781.88
2018-07-09T05:30:12.908Z,905.62
2018-07-09T05:31:12.896Z,1012.50
2018-07-09T05:32:12.885Z,1175.62
2018-07-09T05:33:12.882Z,1395.00
2018-07-09T05:34:12.864Z,1451.25
2018-07-09T05:35:12.879Z,1305.00
2018-07-09T05:36:12.844Z,1186.88
2018-07-09T05:37:12.832Z,1164.38
2018-07-09T05:38:12.820Z,1141.88
2018-07-09T05:39:12.812Z,1158.75
2018-07-09T05:40:12.803Z,1170.00
2018-07-09T05:41:12.815Z,1271.25
2018-07-09T05:42:12.780Z,1366.88
2018-07-09T05:43:12.772Z,1524.38
2018-07-09T05:44:12.758Z,1552.50
2018-07-09T05:45:12.746Z,1327.50
2018-07-09T05:46:12.736Z,1226.25
2018-07-09T05:47:12.744Z,1265.62
2018-07-09T05:48:12.713Z,1265.62
2018-07-09T05:49:12.707Z,1271.25
2018-07-09T05:50:12.696Z,1243.12
2018-07-09T05:51:12.683Z,1282.50
2018-07-09T05:52:12.674Z,1355.62
2018-07-09T05:53:12.685Z,1400.62
2018-07-09T05:54:12.657Z,1383.75
2018-07-09T05:55:12.640Z,1406.25
2018-07-09T05:56:12.632Z,1440.00
2018-07-09T05:57:12.623Z,1530.00
2018-07-09T05:58:12.610Z,1530.00
2018-07-09T05:59:12.624Z,1569.38
2018-07-09T06:00:12.595Z,1496.25
2018-07-09T06:01:12.585Z,1468.12
2018-07-09T06:02:12.566Z,1490.62
2018-07-09T06:03:12.559Z,1485.00
2018-07-09T06:04:12.553Z,1541.25
2018-07-09T06:05:12.563Z,1603.12
2018-07-09T06:06:12.526Z,1563.75
2018-07-09T06:07:12.514Z,1625.62
2018-07-09T06:08:12.504Z,1608.75
2018-07-09T06:09:12.496Z,1530.00
2018-07-09T06:10:12.478Z,1496.25
2018-07-09T06:11:12.497Z,1501.88
2018-07-09T06:12:12.458Z,1507.50
2018-07-09T06:13:12.450Z,1563.75
2018-07-09T06:14:12.439Z,1558.12
2018-07-09T06:15:12.426Z,1501.88
2018-07-09T06:16:12.415Z,1558.12
2018-07-09T06:17:12.432Z,1608.75
2018-07-09T06:18:12.393Z,1552.50
2018-07-09T06:19:12.429Z,1580.62
2018-07-09T06:20:12.375Z,1670.62
2018-07-09T06:21:12.367Z,1670.62
2018-07-09T06:22:12.351Z,1681.88
2018-07-09T06:23:12.371Z,1687.50
2018-07-09T06:24:12.331Z,1687.50
2018-07-09T06:25:12.323Z,1710.00
2018-07-09T06:26:12.312Z,1721.25
2018-07-09T06:27:12.302Z,1693.12
2018-07-09T06:28:12.291Z,1681.88
2018-07-09T06:29:12.298Z,1732.50
2018-07-09T06:30:12.267Z,1811.25
2018-07-09T06:31:12.257Z,1794.38
2018-07-09T06:32:12.256Z,1743.75
2018-07-09T06:33:12.240Z,1766.25
2018-07-09T06:34:12.229Z,1918.12
2018-07-09T06:35:12.244Z,1968.75
2018-07-09T06:36:12.216Z,1805.62
2018-07-09T06:37:12.193Z,1788.75
2018-07-09T06:38:12.181Z,1828.12
2018-07-09T06:39:12.172Z,1901.25
2018-07-09T06:40:12.161Z,1957.50
2018-07-09T06:41:12.176Z,1918.12
2018-07-09T06:42:12.141Z,1935.00
2018-07-09T06:43:12.129Z,1946.25
2018-07-09T06:44:12.119Z,1884.38
2018-07-09T06:45:12.111Z,1957.50
2018-07-09T06:46:12.099Z,1985.62
2018-07-09T06:47:12.110Z,1974.38
2018-07-09T06:48:12.408Z,2075.62
2018-07-09T06:49:12.062Z,2120.62
2018-07-09T06:50:12.062Z,2115.00
2018-07-09T06:51:12.045Z,2103.75
2018-07-09T06:52:12.032Z,2053.12
2018-07-09T06:53:12.048Z,2053.12
2018-07-09T06:54:12.010Z,2103.75
2018-07-09T06:55:12.000Z,2148.75
2018-07-09T06:56:11.993Z,2160.00
2018-07-09T06:57:11.981Z,2137.50
2018-07-09T06:58:11.970Z,2199.38
2018-07-09T06:59:11.979Z,2216.25
2018-07-09T07:00:11.953Z,2221.88
2018-07-09T07:01:11.940Z,2216.25
2018-07-09T07:02:11.990Z,2255.62
2018-07-09T07:03:11.918Z,2401.88
2018-07-09T07:04:11.909Z,2373.75
2018-07-09T07:05:11.921Z,2193.75
2018-07-09T07:06:11.888Z,2311.88
2018-07-09T07:07:11.880Z,2446.88
2018-07-09T07:08:11.866Z,2458.12
2018-07-09T07:09:11.955Z,2452.50
2018-07-09T07:10:11.892Z,2323.12
2018-07-09T07:11:11.865Z,2041.88
2018-07-09T07:12:11.840Z,1794.38
2018-07-09T07:13:11.834Z,1856.25
2018-07-09T07:14:11.832Z,2233.12
2018-07-09T07:15:11.796Z,2458.12
2018-07-09T07:16:11.787Z,2480.62
2018-07-09T07:17:11.810Z,2430.00
2018-07-09T07:18:11.769Z,2328.75
2018-07-09T07:19:11.754Z,2548.12
2018-07-09T07:20:11.744Z,2655.00
2018-07-09T07:21:11.735Z,2480.62
2018-07-09T07:22:11.746Z,2553.75
2018-07-09T07:23:11.713Z,2581.88
2018-07-09T07:24:11.711Z,2430.00
2018-07-09T07:25:11.695Z,2401.88
2018-07-09T07:26:11.683Z,2430.00
2018-07-09T07:27:11.673Z,2598.75
2018-07-09T07:28:11.689Z,2756.25
2018-07-09T07:29:11.711Z,2722.50
2018-07-09T07:30:11.643Z,2542.50
2018-07-09T07:31:11.631Z,2677.50
2018-07-09T07:32:11.623Z,2683.12
2018-07-09T07:33:11.677Z,2565.00
2018-07-09T07:34:11.623Z,2806.88
2018-07-09T07:35:11.592Z,2773.12
2018-07-09T07:36:11.582Z,2621.25
2018-07-09T07:37:11.575Z,2705.62
2018-07-09T07:38:11.562Z,2801.25
2018-07-09T07:39:11.552Z,2868.75
2018-07-09T07:40:11.567Z,2806.88
2018-07-09T07:41:11.536Z,2655.00
2018-07-09T07:42:11.524Z,2615.62
2018-07-09T07:43:11.523Z,2733.75
2018-07-09T07:44:11.552Z,2733.75
2018-07-09T07:45:11.495Z,2716.88
2018-07-09T07:46:11.510Z,2863.12
2018-07-09T07:47:11.474Z,2998.12
2018-07-09T07:48:11.466Z,2874.38
2018-07-09T07:49:11.460Z,2806.88
2018-07-09T07:50:11.521Z,2880.00
2018-07-09T07:51:11.434Z,3026.25
2018-07-09T07:52:11.446Z,3020.62
2018-07-09T07:53:11.418Z,3015.00
2018-07-09T07:54:11.407Z,3048.75
2018-07-09T07:55:11.405Z,2851.88
2018-07-09T07:56:11.387Z,2626.88
2018-07-09T07:57:11.378Z,2705.62
2018-07-09T07:58:11.389Z,3054.38
2018-07-09T07:59:11.356Z,3144.38
2018-07-09T08:00:11.351Z,3082.50
2018-07-09T08:01:11.345Z,3054.38
2018-07-09T08:02:11.331Z,3150.00
2018-07-09T08:03:11.318Z,3290.62
2018-07-09T08:04:11.333Z,3138.75
2018-07-09T08:05:11.298Z,3195.00
2018-07-09T08:06:11.289Z,3307.50
2018-07-09T08:07:11.280Z,3245.62
2018-07-09T08:08:11.292Z,3245.62
2018-07-09T08:09:11.261Z,3273.75
2018-07-09T08:10:11.314Z,3380.62
2018-07-09T08:11:11.511Z,3369.38
2018-07-09T08:13:00.557Z,3313.12
2018-07-09T08:13:27.990Z,3093.75
2018-07-09T08:14:12.211Z,3240.00
2018-07-09T08:15:11.200Z,3318.75
2018-07-09T08:16:11.216Z,3380.62
2018-07-09T08:17:11.187Z,3358.12
2018-07-09T08:18:11.178Z,3588.75
2018-07-09T08:19:11.162Z,3442.50
2018-07-09T08:20:11.152Z,3290.62
2018-07-09T08:21:11.142Z,3695.62
2018-07-09T08:22:11.184Z,3431.25
2018-07-09T08:23:11.124Z,2908.12
2018-07-09T08:24:11.119Z,3853.12
2018-07-09T08:25:11.273Z,3701.25
2018-07-09T08:26:11.098Z,2587.50
2018-07-09T08:27:11.430Z,3538.12
2018-07-09T08:28:11.571Z,4218.75
2018-07-09T08:29:11.073Z,3245.62
2018-07-09T08:30:11.063Z,2716.88
2018-07-09T08:31:11.091Z,4038.75
2018-07-09T08:32:11.045Z,3943.12
2018-07-09T08:33:11.042Z,3031.88
2018-07-09T08:34:11.051Z,3268.12
2018-07-09T08:35:11.014Z,3931.88
2018-07-09T08:36:11.004Z,3431.25
2018-07-09T08:37:10.998Z,3217.50
2018-07-09T08:38:10.991Z,3881.25
2018-07-09T08:39:10.985Z,3892.50
2018-07-09T08:40:10.993Z,3043.12
2018-07-09T08:41:10.957Z,2874.38
2018-07-09T08:42:10.947Z,3543.75
2018-07-09T08:43:10.934Z,3330.00
2018-07-09T08:44:10.938Z,3408.75
2018-07-09T08:45:10.929Z,3487.50
2018-07-09T08:46:10.939Z,3352.50
2018-07-09T08:47:10.896Z,3155.62
2018-07-09T08:48:10.905Z,1636.88
2018-07-09T08:49:10.924Z,2306.25
2018-07-09T08:50:10.871Z,2818.12
2018-07-09T08:51:10.865Z,2868.75
2018-07-09T08:52:10.870Z,3290.62
2018-07-09T08:53:10.842Z,2694.38
2018-07-09T08:54:10.829Z,2941.88
2018-07-09T08:55:10.848Z,2930.62
2018-07-09T08:56:10.813Z,2812.50
2018-07-09T08:57:10.806Z,2413.12
2018-07-09T08:58:10.823Z,2115.00
2018-07-09T08:59:10.783Z,2278.12
2018-07-09T09:00:10.780Z,2491.88
2018-07-09T09:01:10.767Z,3166.88
2018-07-09T09:02:11.213Z,3515.62
2018-07-09T09:03:10.751Z,3200.62
2018-07-09T09:04:10.769Z,3751.88
2018-07-09T09:05:10.739Z,3780.00
2018-07-09T09:06:10.724Z,3009.38
2018-07-09T09:07:10.711Z,3701.25
2018-07-09T09:08:10.705Z,3583.12
2018-07-09T09:09:10.695Z,3183.75
2018-07-09T09:10:10.841Z,2435.62
2018-07-09T09:11:10.722Z,2244.38
2018-07-09T09:12:10.661Z,2227.50
2018-07-09T09:13:10.681Z,2137.50
2018-07-09T09:14:10.644Z,2030.62
2018-07-09T09:15:10.637Z,2767.50
2018-07-09T09:16:10.643Z,3611.25
2018-07-09T09:17:10.620Z,3594.38
2018-07-09T09:18:10.605Z,3746.25
2018-07-09T09:19:10.594Z,3661.88
2018-07-09T09:20:10.608Z,3661.88
2018-07-09T09:21:10.576Z,2930.62
2018-07-09T09:22:10.566Z,3521.25
2018-07-09T09:23:10.559Z,3526.88
2018-07-09T09:24:10.548Z,3808.12
2018-07-09T09:25:10.537Z,3560.62
2018-07-09T09:26:10.552Z,3768.75
2018-07-09T09:27:10.519Z,3853.12
2018-07-09T09:28:10.511Z,3881.25
2018-07-09T09:29:10.500Z,3780.00
2018-07-09T09:30:10.491Z,3172.50
2018-07-09T09:31:10.541Z,3093.75
2018-07-09T09:32:10.504Z,3358.12
2018-07-09T09:33:10.466Z,2666.25
2018-07-09T09:34:10.468Z,3600.00
2018-07-09T09:35:10.449Z,3498.75
2018-07-09T09:36:10.438Z,3335.62
2018-07-09T09:37:10.430Z,2621.25
2018-07-09T09:38:10.441Z,3673.12
2018-07-09T09:39:10.409Z,3875.62
2018-07-09T09:40:10.401Z,3909.38
2018-07-09T09:41:10.396Z,4038.75
2018-07-09T09:42:10.384Z,3948.75
2018-07-09T09:43:10.420Z,4111.88
2018-07-09T09:44:10.385Z,3982.50
2018-07-09T09:45:10.363Z,3628.12
2018-07-09T09:46:10.348Z,3898.12
2018-07-09T09:47:10.347Z,3937.50
2018-07-09T09:48:10.328Z,4140.00
2018-07-09T09:49:10.319Z,4162.50
2018-07-09T09:50:10.338Z,4263.75
2018-07-09T09:51:10.300Z,4123.12
2018-07-09T09:52:10.290Z,3931.88
2018-07-09T09:53:10.290Z,3735.00
2018-07-09T09:54:10.280Z,3954.38
2018-07-09T09:55:10.271Z,4083.75
2018-07-09T09:56:10.280Z,3847.50
2018-07-09T09:57:10.247Z,3943.12
2018-07-09T09:58:10.244Z,4263.75
2018-07-09T09:59:10.232Z,1867.50
2018-07-09T10:00:10.227Z,3009.38
2018-07-09T10:01:10.216Z,4044.38
2018-07-09T10:02:10.237Z,3825.00
2018-07-09T10:03:10.241Z,3993.75
2018-07-09T10:04:10.192Z,3926.25
2018-07-09T10:05:10.177Z,3892.50
2018-07-09T10:06:10.228Z,3791.25
2018-07-09T10:07:10.164Z,2885.62
2018-07-09T10:08:10.176Z,2469.38
2018-07-09T10:09:10.142Z,3802.50
2018-07-09T10:10:10.135Z,3712.50
2018-07-09T10:11:10.124Z,3791.25
2018-07-09T10:12:10.116Z,3886.88
2018-07-09T10:13:10.125Z,4156.88
2018-07-09T10:14:10.125Z,4224.38
2018-07-09T10:15:10.089Z,3926.25
2018-07-09T10:16:10.096Z,4190.62
2018-07-09T10:17:10.073Z,3915.00
2018-07-09T10:18:10.246Z,3678.75
2018-07-09T10:19:10.301Z,4038.75
2018-07-09T10:20:10.072Z,3774.38
2018-07-09T10:21:10.040Z,3976.88
2018-07-09T10:22:10.029Z,4162.50
2018-07-09T10:23:10.196Z,4286.25
2018-07-09T10:24:10.011Z,4044.38
2018-07-09T10:25:10.002Z,4010.62
2018-07-09T10:26:10.022Z,4280.62
2018-07-09T10:27:09.986Z,4201.88
2018-07-09T10:28:09.978Z,3729.38
2018-07-09T10:29:09.979Z,2688.75
2018-07-09T10:30:09.958Z,3853.12
2018-07-09T10:31:09.951Z,3943.12
2018-07-09T10:32:09.989Z,1535.62
2018-07-09T10:33:09.938Z,3825.00
2018-07-09T10:34:09.927Z,3802.50
2018-07-09T10:35:09.919Z,1777.50
2018-07-09T10:36:09.910Z,2058.75
2018-07-09T10:37:09.898Z,4353.75
2018-07-09T10:38:09.921Z,2446.88
2018-07-09T10:39:09.883Z,3976.88
2018-07-09T10:40:09.873Z,3864.38
2018-07-09T10:41:09.864Z,4275.00
2018-07-09T10:42:09.869Z,2064.38
2018-07-09T10:43:09.846Z,1338.75
2018-07-09T10:44:09.865Z,916.88
2018-07-09T10:45:09.831Z,911.25
2018-07-09T10:46:09.818Z,821.25
2018-07-09T10:47:09.831Z,1119.38
2018-07-09T10:48:09.804Z,1136.25
2018-07-09T10:49:09.791Z,810.00
2018-07-09T10:50:09.807Z,978.75
2018-07-09T10:51:09.772Z,742.50
2018-07-09T10:52:09.763Z,714.38
2018-07-09T10:53:09.752Z,765.00
2018-07-09T10:54:09.742Z,1366.88
2018-07-09T10:55:09.761Z,838.12
2018-07-09T10:56:09.747Z,905.62
2018-07-09T10:57:09.713Z,1951.88
2018-07-09T10:58:09.705Z,928.12
2018-07-09T10:59:09.692Z,1220.62
2018-07-09T11:00:09.681Z,3993.75
2018-07-09T11:01:09.724Z,1001.25
2018-07-09T11:02:09.691Z,3391.88
2018-07-09T11:03:09.653Z,787.50
2018-07-09T11:04:09.643Z,669.38
2018-07-09T11:05:09.632Z,585.00
2018-07-09T11:06:09.622Z,556.88
2018-07-09T11:07:09.616Z,641.25
2018-07-09T11:08:09.625Z,759.38
2018-07-09T11:09:09.591Z,860.62
2018-07-09T11:10:09.596Z,1170.00
2018-07-09T11:11:09.572Z,2401.88
2018-07-09T11:12:09.564Z,3892.50
2018-07-09T11:13:09.550Z,3774.38
2018-07-09T11:14:09.560Z,3285.00
2018-07-09T11:15:09.537Z,1366.88
2018-07-09T11:16:09.535Z,3864.38
2018-07-09T11:17:09.512Z,2030.62
2018-07-09T11:18:09.501Z,3470.62
2018-07-09T11:19:09.493Z,4224.38
2018-07-09T11:20:09.509Z,1338.75
2018-07-09T11:21:09.471Z,3470.62
2018-07-09T11:22:09.463Z,2536.88
2018-07-09T11:23:09.454Z,1321.88
2018-07-09T11:24:09.443Z,787.50
2018-07-09T11:25:09.433Z,1833.75
2018-07-09T11:26:09.442Z,2666.25
2018-07-09T11:27:09.414Z,748.12
2018-07-09T11:28:09.409Z,748.12
2018-07-09T11:29:09.399Z,2874.38
2018-07-09T11:30:09.382Z,2908.12
2018-07-09T11:31:09.373Z,1670.62
2018-07-09T11:32:09.384Z,1102.50
2018-07-09T11:33:09.355Z,1085.62
2018-07-09T11:34:09.346Z,765.00
2018-07-09T11:35:09.332Z,714.38
2018-07-09T11:36:09.421Z,804.38
2018-07-09T11:37:09.312Z,1170.00
2018-07-09T11:38:09.330Z,759.38
2018-07-09T11:39:09.293Z,652.50
2018-07-09T11:40:09.311Z,641.25
2018-07-09T11:41:09.277Z,630.00
2018-07-09T11:42:09.281Z,596.25
2018-07-09T11:43:09.254Z,607.50
2018-07-09T11:44:09.304Z,736.88
2018-07-09T11:45:09.233Z,1867.50
2018-07-09T11:46:09.226Z,939.38
2018-07-09T11:47:09.221Z,804.38
2018-07-09T11:48:09.200Z,877.50
2018-07-09T11:49:09.193Z,770.62
2018-07-09T11:50:09.211Z,731.25
2018-07-09T11:51:09.183Z,748.12
2018-07-09T11:52:09.172Z,748.12
2018-07-09T11:53:09.152Z,826.88
2018-07-09T11:54:09.136Z,855.00
2018-07-09T11:55:09.126Z,866.25
2018-07-09T11:56:09.144Z,860.62
2018-07-09T11:57:09.113Z,866.25
2018-07-09T11:58:09.096Z,855.00
2018-07-09T11:59:09.087Z,860.62
2018-07-09T12:00:09.076Z,855.00
2018-07-09T12:01:09.067Z,866.25
2018-07-09T12:02:09.080Z,866.25
2018-07-09T12:03:09.053Z,849.38
2018-07-09T12:04:09.035Z,815.62
2018-07-09T12:05:09.029Z,781.88
2018-07-09T12:06:09.015Z,753.75
2018-07-09T12:07:09.007Z,708.75
2018-07-09T12:08:09.015Z,663.75
2018-07-09T12:09:08.993Z,585.00
2018-07-09T12:10:08.981Z,523.12
2018-07-09T12:11:08.969Z,483.75
2018-07-09T12:12:08.954Z,478.12
2018-07-09T12:13:08.942Z,466.88
2018-07-09T12:14:08.951Z,483.75
2018-07-09T12:15:08.929Z,568.12
2018-07-09T12:16:08.910Z,646.88
2018-07-09T12:17:08.900Z,759.38
2018-07-09T12:18:08.890Z,810.00
2018-07-09T12:19:09.412Z,804.38
2018-07-09T12:20:09.655Z,781.88
2018-07-09T12:21:08.863Z,646.88
2018-07-09T12:22:08.848Z,601.88
2018-07-09T12:23:08.847Z,613.12
2018-07-09T12:24:08.825Z,635.62
2018-07-09T12:25:08.823Z,641.25
2018-07-09T12:26:08.832Z,652.50
2018-07-09T12:27:08.799Z,686.25
2018-07-09T12:28:08.784Z,697.50
2018-07-09T12:29:08.913Z,697.50
2018-07-09T12:30:08.762Z,691.88
2018-07-09T12:31:08.751Z,697.50
2018-07-09T12:32:08.800Z,725.62